Карточка аэропорта USSS

Внимание!
Информация на этой странице в стадии наполнения.
Если вы не увидели какой-то информации, или заметили неточность - пожалуйста сообщите нам!
Спасибо!
Команда RU-STAFF
Название аэропортаКольцово
Название аэропорта (англ.)Koltsovo
Превышение766 ft. (233.5 m.)
Координаты56°44.586', 60°48.186'
Высота перехода900m
Эшелон переходаQFE>=739mm:FL050; QFE 712mm-738mm:FL060; QFE<=712mm:FL70
Коды ответчика5520-5557
Зона ОрВДЕкатеринбург РПИ (USSV)
Данные METARUSSS 082130Z 28008MPS CAVOK M13/M16 Q1033 R26L/81//60 NOSIG RMK QFE754/1005
Проноз погоды (TAF)USSS 081946Z 0821/0921 27005G15MPS CAVOK TEMPO 0821/0916 DRSN BECMG 0914/0916 24003G13MPS BECMG 0916/0918 8000 BKN030
NOTAMshow/hide NOTAM
AWOS   TABLE

Информация о ВПП

ВПП Длина ВПП (м.) Покрытие Курс ВПП Частота ILS
08L3004Асфальтобетон75111.7
26R3004Асфальтобетон255110.5
08R3026Бетон79109.9
26L3026Бетон259109.5

Диспетчерские позиции

Позывной Наименование органа УВД Частота
USSS_ATIS_APPКольцово АТИС127.850
USSV_FSS_CTRКольцово Транзит131.900
USSS_R_APPКольцово-Круг118.7
USSS_APPКольцово-Подход125.9
USSS_GNDКольцово-Руление119.0
USSS_TWRКольцово-Старт124.3
USSSFM1Машина сопровождения119.000



Спутниковое изображение